Aviation Digital Data Service (ADDS)

Output produced by METARs form (2155 UTC 24 March 2019)
found at http://www.aviationweather.gov/metar/data/
 
TAF COR MMCS 241823Z 2418/2518 29015KT P6SM SCT160 SCT250 
     FM250400 33010KT P6SM BKN220 
     BECMG 2509/2510 04008KT 
     FM251600 09010KT P6SM BKN200
       
TAF MMBT 241630Z 2418/2518 18005KT P6SM SCT020 
     BECMG 2420/2421 23010KT BKN030CB 
     TEMPO 2422/2502 VC RA 
     FM250300 00000KT P6SM SCT030 SCT080 
     BECMG 2505/2506 SCT080 
     FM251200 00000KT 6SM HZ SKC
       
TAF MMVA 241646Z 2418/2518 12005KT 5SM HZ SCT012 
     FM242000 07012KT 6SM HZ SCT020 
     BECMG 2502/2503 09006KT 
     FM251000 09005KT 5SM HZ BKN015 
     TEMPO 2511/2515 3SM BR HZ 
     FM251600 09005KT 6SM HZ SCT015
       
TAF MMUN 241704Z 2418/2524 06010KT P6SM BKN015 TX28/2418Z TN16/2510Z 
     FM250300 08008KT 6SM HZ BKN015 BKN025 
     TEMPO 2505/2509 6SM -RA 
     FM251500 08010KT P6SM BKN015 BKN025 
     TEMPO 2515/2519 5SM RA 
     FM251900 08010KT P6SM SCT015 BKN025
       
TAF MMCM 241646Z 2418/2518 09006KT P6SM SCT020 
     BECMG 2420/2421 12012KT BKN020 
     FM250200 12006KT P6SM SCT020 
     BECMG 2505/2506 03005KT 
     FM251000 36005KT 6SM HZ BKN015 
     TEMPO 2511/2515 3SM BR HZ 
     FM251600 07005KT 6SM HZ BKN020
       
TAF MMCE 241646Z 2418/2518 12012KT 6SM HZ SCT015 
     BECMG 2420/2421 36015KT 
     FM250200 03008KT P6SM SCT080 
     BECMG 2505/2506 09005KT SKC 
     FM251200 13010KT 6SM HZ SCT015
       
TAF MMCN 241635Z 2418/2518 24005KT P6SM SKC 
     BECMG 2420/2421 24012KT 
     FM250200 29005KT P6SM SCT250 
     BECMG 2505/2506 00000KT 
     FM251600 32005KT P6SM BKN250
       
TAF MMCV 241704Z 2418/2518 15015G25KT 6SM HZ SCT030 
     BECMG 2501/2502 15010KT SKC 
     FM251000 15006KT 5SM HZ BKN015 
     BECMG 2515/2516 15010KT SCT015
       
TAF MMCZ 241704Z 2418/2524 05010KT P6SM SCT015 TX28/2418Z TN18/2510Z 
     FM250400 07006KT 6SM HZ BKN015 OVC020 
     TEMPO 2507/2511 5SM RA 
     FM251500 07010KT P6SM BKN015 
     TEMPO 2519/2523 5SM RA
       
TAF MMCB 241630Z 2418/2518 14006KT P6SM SCT025 
     BECMG 2420/2421 14012KT 
     FM250200 32005KT P6SM SCT080 
     BECMG 2505/2506 00000KT 
     FM251200 12005KT 6SM HZ SKC
       
TAF MMCL 241653Z 2418/2518 26010KT P6SM SKC 
     FM250400 35006KT P6SM SKC 
     FM251600 20006KT P6SM SKC
       
TAF MMLO 241633Z 2418/2518 18005KT P6SM SCT030 
     BECMG 2420/2421 23012KT 
     FM250200 23005KT P6SM SCT030 
     BECMG 2505/2506 00000KT SKC 
     FM251600 16005KT P6SM SKC
       
TAF MMAN 241714Z 2418/2518 09006KT 4SM HZ BKN015 
     FM242000 09006KT 6SM HZ SCT020 
     FM250300 00000KT 3SM BR HZ BKN010 
     TEMPO 2510/2514 2SM BR HZ BKN005 OVC010 
     FM251530 07005KT 4SM HZ BKN012
       
TAF MMGL 241645Z 2418/2524 25010KT P6SM SKC TX29/2422Z TN12/2512Z 
     FM250400 00000KT P6SM SKC 
     FM251700 13008KT P6SM SKC 
     BECMG 2521/2522 32008KT
       
TAF MMDO 241635Z 2418/2518 21005KT P6SM SKC 
     BECMG 2420/2421 23012KT 
     FM250200 24005KT PSM SKC 
     BECMG 2505/2506 00000KT 
     FM251600 21005KT P6SM SKC
       
TAF MMTG 241704Z 2418/2518 34015KT P6SM SCT025 
     FM250400 07005KT P6SM SKC 
     BECMG 2509/2510 4SM BR HZ 
     FM251500 33010KT P6SM SKC
       
TAF MMTJ 241653Z 2418/2524 30008KT P6SM SCT020 SCT220 TX20/2420Z TN11/2513Z 
     FM250400 33005KT 6SM HZ SKC 
     BECMG 2509/2510 4SM HZ BKN010 
     TEMPO 2511/2515 2SM BR HZ BKN005 OVC010 
     FM251600 29006KT 5SM HZ SCT015 
     FM251900 29010KT P6SM SKC
       
TAF MMMM 241645Z 2418/2524 18008KT P6SM SKC 
     FM250400 00000KT P6SM SKC 
     FM251700 04008KT P6SM SCT130
       
TAF AMD MMTM 242125Z 2421/2518 12010KT P6SM SCT200 
     FM250600 14005KT 5SM HZ BKN020 
     FM251000 00000KT 2SM BR OVC010 
     TEMPO 2511/2515 1SM BR OVC006 
     FM251600 12010KT 5SM HZ SCT015
       
TAF MMVR 241637Z 2418/2518 07010KT 6SM HZ SCT020 TX30/2420Z TN22/2512Z 
     FM250400 00000KT 5SM HZ SCT030 
     TEMPO 2510/2514 3SM BR HZ 
     FM251500 09006KT 5SM HZ SCT030
       
TAF MMHO 241653Z 2418/2518 26008KT P6SM SCT250 
     FM250400 29008KT P6SM SCT250 
     FM251600 27006KT P6SM SCT250
       
TAF MMGM 241635Z 2418/2518 25006KT P6SM SKC 
     BECMG 2420/2421 25012KT 
     FM250200 32005KT P6SM SCT250 
     BECMG 2505/2506 00000KT 
     FM251200 32005KT P6SM BKN250
       
TAF MMAA 241637Z 2418/2524 24010KT P6SM SKC TX30/2418Z TN22/2510Z 
     FM250400 35005KT P6SM SKC 
     FM251700 24010KT P6SM SKC
       
TAF MMZC 241645Z 2418/2524 22012KT P6SM SKC TX24/2422Z TN09/2511Z 
     FM250400 26006KT P6SM SKC 
     FM251700 13010KT P6SM SKC 
     BECMG 2521/2522 SCT120
       
TAF COR MMRX 241756Z 2418/2518 14012G22KT 6SM HZ BKN030 
     BECMG 2420/2421 13015G25KT 
     FM250200 13010KT 6SM HZ SCT030 
     FM251000 15008KT 3SM BR HZ BKN005 OVC010 
     TEMPO 2511/2515 1SM BR HZ OVC005 
     FM251600 15010KT 5SM HZ SCT008 BKN015
       
TAF MMLP 241653Z 2418/2518 35012KT P6SM SKC 
     FM250400 20006KT P6SM SKC 
     FM251600 03010KT P6SM SKC
       
TAF MMMY 241714Z 2418/2524 08006KT 5SM HZ BKN010 OVC015 TX28/2422Z TN19/2512Z 
     FM241900 09006KT 6SM HZ BKN015 
     BECMG 2420/2421 SCT020 
     FM250300 00000KT 3SM BR HZ BKN010 
     TEMPO 2510/2514 2SM BR HZ BKN005 OVC010 
     FM251530 07005KT 4SM HZ BKN012 
     FM251900 08010KT P6SM SCT025 SCT080
       
TAF MMCU 241714Z 2418/2518 20010KT P6SM SKC 
     FM250400 34008KT P6SM SCT220 
     FM251600 04010KT P6SM BKN220
       
TAF MMMZ 241653Z 2418/2524 25010KT P6SM SKC TX31/2420Z TN12/2511Z 
     FM250400 34006KT P6SM SKC 
     FM251700 26010KT P6SM SKC
       
TAF MMML 241653Z 2418/2518 35010KT P6SM SKC 
     FM250400 30006KT P6SM SKC 
     FM251600 35010KT P6SM SKC
       
TAF MMMA 241704Z 2418/2518 15010KT 6SM HZ BKN020 
     BECMG 2420/2421 15015G25KT 
     FM250200 15010KT P6SM BKN030 
     FM251000 15008KT 3SM BR HZ OVC010 
     FM251500 15010KT 6SM HZ BKN015
       
TAF MMPB 241630Z 2418/2518 13006KT P6SM SCT025 
     FM242100 18012KT P6SM SCT030CB BKN090 
     TEMPO 2422/2502 VC RA 
     FM250300 00000KT P6SM SCT025 SCT090 
     BECMG 2505/2506 SCT090 
     FM251200 32005KT 6SM HZ SKC
       
TAF MMCP 241646Z 2418/2518 12012KT 6SM HZ SCT030 
     BECMG 2420/2421 36010G20KT 
     FM250200 03010KT P6SM SCT080 
     BECMG 2505/2506 09005KT SKC 
     FM251200 12010KT 5SM HZ SCT015
       
TAF MMQT 241633Z 2418/2518 12005KT 6SM HZ SKC 
     BECMG 2420/2421 06012KT SCT030 
     FM250200 02006KT P6SM SKC 
     BECMG 2505/2506 00000KT 
     FM251000 00000KT 5SM HZ SCT015 
     TEMPO 2511/2515 3SM BR HZ BKN015 
     FM251600 09005KT 6SM HZ SKC
       
TAF MMZH 241630Z 2418/2518 23006KT 6SM HZ SKC 
     BECMG 2420/2421 23012KT SCT020 
     FM250200 00000KT P6SM SKC 
     BECMG 2512/2513 6SM HZ
       
TAF MMAS 241633Z 2418/2518 18005KT P6SM SKC 
     BECMG 2420/2421 23012KT SCT040 
     FM250200 21006KT P6SM SKC 
     BECMG 2505/2506 00000KT 
     FM251200 34005KT P6SM SKC
       
TAF MMTO 241637Z 2418/2524 22006KT 6SM HZ SCT015 TX24/2421Z TN04/2512Z 
     TEMPO 2421/2501 SCT015CB 
     FM250400 04005KT 5SM HZ SKC 
     BECMG 2511/2512 2SM BR HZ 
     FM251600 08006KT 4SM HZ SKC 
     FM251900 08010KT P6SM SCT015
       
TAF MMMX 241637Z 2418/2524 32006KT P6SM SCT025 TX25/2421Z TN12/2512Z 
     BECMG 2422/2423 04010KT 
     FM250400 07005KT P6SM SKC 
     BECMG 2511/2512 6SM HZ 
     FM251700 06006KT P6SM SKC 
     BECMG 2520/2521 05012KT SCT025
       
TAF MMPR 241645Z 2418/2524 20010KT P6SM SKC TX29/2419Z TN18/2511Z 
     FM250400 07005KT P6SM SKC 
     FM251700 20010KT P6SM SKC
       
TAF MMMD 241704Z 2418/2524 06015KT P6SM SCT020 TX33/2420Z TN22/2510Z 
     FM250400 07008KT 6SM HZ BKN015 
     TEMPO 2510/2514 3SM BR HZ BKN006 
     FM251500 08008KT 6SM HZ BKN015 
     FM251700 06010KT P6SM SCT020 
     BECMG 2521/2522 03015KT
       
TAF MMPN 241633Z 2418/2518 18005KT P6SM SKC 
     BECMG 2420/2421 21012KT SCT030 
     FM250200 00000KT P6SM SKC 
     BECMG 2512/2513 6SM HZ
       
TAF MMLT 241635Z 2418/2518 04008KT P6SM SKC 
     BECMG 2420/2421 04012KT 
     FM250200 04008KT P6SM SKC 
     BECMG 2505/2506 00000KT 
     FM251600 34006KT P6SM SCT240
       
TAF MMSD 241635Z 2418/2518 13006KT P6SM SKC 
     BECMG 2420/2421 13012KT 
     FM250200 32006KT P6SM SKC 
     BECMG 2505/2506 00000KT 
     FM251200 28008KT P6SM SKC
       
TAF MMMT 241646Z 2418/2518 36005KT P6SM SKC 
     BECMG 2420/2421 36015KT SCT040 
     FM250200 36006KT P6SM SCT040 
     BECMG 2505/2506 00000KT 
     FM251000 00000KT 5SM HZ BKN015 BKN040 
     FM251600 03005KT 6SM HZ SCT020 BKN040
       
TAF MMPG 241704Z 2418/2518 09006KT P6SM BKN015 
     BECMG 2420/2421 09012KT SCT020 
     FM250100 03006KT P6SM SKC 
     BECMG 2505/2506 09005KT SCT015 
     FM250900 00000KT 3SM BR HZ OVC015 
     BECMG 2515/2516 5SM HZ BKN015
       
TAF COR MMIO 241829Z 2418/2518 02008KT P6SM SKC 
     FM250400 00000KT P6SM SKC 
     BECMG 2515/2516 01006KT
       
TAF MMZO 241645Z 2418/2518 25010KT P6SM SKC 
     FM250400 35005KT P6SM SKC 
     FM251700 25008KT P6SM SKC
       
TAF MMSP 241645Z 2418/2524 10010KT P6SM SCT020 TX29/2422Z TN09/2512Z 
     FM250400 00000KT P6SM SKC 
     BECMG 2509/2510 3SM BR SCT010 
     TEMPO 2511/2515 1SM BR HZ BKN010 
     FM251600 10006KT 6SM HZ SCT015 
     FM251900 09015KT P6SM SCT020
       
TAF MMPS 241630Z 2418/2518 19005KT P6SM SCT010 
     BECMG 2420/2421 23012KT SCT015CB SCT080 
     FM250200 00000KT P6SM SCT080 
     BECMG 2512/2513 6SM HZ SKC
       
TAF COR MMNL 241755Z 2418/2518 12008KT P6SM OVC020 
     BECMG 2420/2421 12015KT BKN020 
     FM250100 12010KT P6SM SCT020 
     BECMG 2505/2506 12005KT 
     FM251000 15005KT 3SM BR HZ BKN005 OVC010 
     TEMPO 2511/2515 1SM BR HZ OVC005 
     FM251600 09005KT 5SM HZ SCT008 BKN015
       
TAF MMTP 241704Z 2418/2524 24010KT P6SM SCT020 TX32/2418Z TN22/2511Z 
     TEMPO 2421/2501 BKN020 
     FM250400 01005KT P6SM SKC 
     FM251600 25010KT P6SM SKC
       
TAF MMEP 241633Z 2418/2518 32005KT P6SM SKC 
     BECMG 2420/2421 36012KT SCT030 
     FM250200 32005KT P6SM SKC 
     BECMG 2505/2506 00000KT 
     FM251200 12005KT P6SM SKC
       
TAF MMTC 241714Z 2418/2518 05010KT P6SM SKC 
     FM250400 00000KT P6SM SKC 
     FM251600 06010KT P6SM SKC
       
TAF MMLM 241635Z 2418/2518 32010KT P6SM SKC 
     BECMG 2420/2421 32015KT 
     FM250200 32008KT P6SM SKC 
     BECMG 2505/2506 32005KT 
     FM251600 32008KT P6SM SCT250
       
TAF MMOX 241630Z 2418/2518 28006KT P6SM SCT030 
     BECMG 2420/2421 07012KT BKN030CB BKN090 
     TEMPO 2422/2502 VC RA 
     FM250300 07005KT P6SM SCT030 BKN090 
     BECMG 2505/2506 00000KT SCT090 
     FM251200 29005KT 6SM HZ SKC